Time;durP1;ratioP1;P1;durP2;ratioP2;P2;SDS_P1;SDS_P2;PMS_P1;PMS_P2;Temp;Humidity;BMP_temperature;BMP_pressure;BME280_temperature;BME280_humidity;BME280_pressure;Samples;Min_cycle;Max_cycle;Signal;HPM_P1;HPM_P2
2022/05/29 00:01:19;;;;;;;0.40;0.40;;;12.00;99.90;12.20;101706.00;;;;5075427;28;20207;-65
2022/05/29 00:03:45;;;;;;;0.30;0.30;;;12.20;99.90;12.10;101701.00;;;;5076149;28;20184;-65
2022/05/29 00:06:13;;;;;;;0.33;0.33;;;12.20;99.90;12.00;101699.00;;;;5074503;28;20188;-65
2022/05/29 00:08:42;;;;;;;0.30;0.30;;;12.20;99.90;12.30;101661.00;;;;5074624;28;20182;-65
2022/05/29 00:11:13;;;;;;;0.30;0.30;;;12.30;99.90;12.50;101672.00;;;;5073986;28;20206;-65
2022/05/29 00:13:44;;;;;;;0.30;0.30;;;12.50;99.90;11.90;101693.00;;;;5076122;28;20247;-65
2022/05/29 00:16:09;;;;;;;0.40;0.40;;;12.30;99.90;11.90;101682.00;;;;5075862;28;20177;-65
2022/05/29 00:18:37;;;;;;;0.40;0.40;;;12.30;99.90;11.60;101646.00;;;;5074438;28;20703;-65
2022/05/29 00:21:06;;;;;;;0.40;0.40;;;12.00;99.90;11.90;101687.00;;;;5075339;28;20521;-65
2022/05/29 00:23:40;;;;;;;0.30;0.30;;;12.00;99.90;12.00;101688.00;;;;5074273;28;20185;-65
2022/05/29 00:26:06;;;;;;;0.30;0.30;;;12.00;99.90;11.80;101665.00;;;;5074014;28;20200;-65
2022/05/29 00:28:32;;;;;;;0.40;0.40;;;12.00;99.90;11.50;101670.00;;;;5075132;28;20162;-65
2022/05/29 00:30:58;;;;;;;0.40;0.40;;;11.80;99.90;11.70;101667.00;;;;5074776;28;20249;-66
2022/05/29 00:33:24;;;;;;;0.40;0.40;;;11.80;99.90;11.50;101674.00;;;;5074149;28;20188;-65
2022/05/29 00:35:50;;;;;;;0.40;0.40;;;11.60;99.90;11.50;101670.00;;;;5075602;28;20179;-65
2022/05/29 00:38:15;;;;;;;0.40;0.40;;;11.60;99.90;11.60;101666.00;;;;5073765;28;20605;-65
2022/05/29 00:41:04;;;;;;;0.40;0.40;;;11.60;99.90;11.50;101670.00;;;;5073946;28;20163;-65
2022/05/29 00:43:30;;;;;;;0.40;0.40;;;11.60;99.90;11.30;101668.00;;;;5075039;28;20262;-66
2022/05/29 00:46:00;;;;;;;0.40;0.40;;;11.40;99.90;11.20;101661.00;;;;5075078;28;20626;-66
2022/05/29 00:48:27;;;;;;;0.40;0.40;;;11.40;99.90;11.30;101656.00;;;;5073684;28;20181;-65
2022/05/29 00:50:58;;;;;;;0.40;0.40;;;11.40;99.90;11.10;101657.00;;;;5073679;28;20194;-66
2022/05/29 00:53:24;;;;;;;0.40;0.40;;;11.30;99.90;11.40;101671.00;;;;5074703;28;20226;-65
2022/05/29 00:56:08;;;;;;;0.40;0.40;;;11.40;99.90;11.20;101653.00;;;;5072545;28;20178;-66
2022/05/29 00:58:35;;;;;;;0.40;0.40;;;11.40;99.90;11.50;101664.00;;;;5056830;28;20635;-65
2022/05/29 01:01:03;;;;;;;0.40;0.40;;;11.50;99.90;11.50;101654.00;;;;5074547;28;20207;-66
2022/05/29 01:03:28;;;;;;;0.40;0.40;;;11.60;99.90;11.60;101640.00;;;;5073566;28;20168;-65
2022/05/29 01:05:54;;;;;;;0.40;0.40;;;11.60;99.90;11.50;101608.00;;;;5074544;28;20522;-66
2022/05/29 01:08:32;;;;;;;0.40;0.40;;;11.60;99.90;11.60;101657.00;;;;5074270;28;20649;-65
2022/05/29 01:11:30;;;;;;;0.40;0.40;;;11.60;99.90;11.90;101673.00;;;;5074261;28;20177;-65
2022/05/29 01:14:43;;;;;;;0.43;0.43;;;11.90;99.90;11.00;101662.00;;;;5068945;28;20189;-65
2022/05/29 01:17:44;;;;;;;0.30;0.30;;;11.80;99.90;11.00;101663.00;;;;5052172;28;20200;-65
2022/05/29 01:20:10;;;;;;;0.60;0.60;;;11.50;99.90;10.80;101660.00;;;;5072911;28;20174;-65
2022/05/29 01:22:45;;;;;;;0.40;0.40;;;11.30;99.90;10.50;101621.00;;;;5074397;28;20221;-65
2022/05/29 01:25:26;;;;;;;0.40;0.40;;;11.20;99.90;10.00;101671.00;;;;5074314;28;20159;-65
2022/05/29 01:28:13;;;;;;;0.40;0.40;;;11.00;99.90;9.80;101672.00;;;;5074155;28;20173;-65
2022/05/29 01:30:51;;;;;;;0.30;0.30;;;10.70;99.90;9.90;101636.00;;;;5072850;28;20171;-66
2022/05/29 01:33:29;;;;;;;0.60;0.60;;;10.50;99.90;10.50;101672.00;;;;5072699;28;20222;-65
2022/05/29 01:36:03;;;;;;;0.40;0.40;;;10.70;99.90;11.00;101664.00;;;;5074143;28;20177;-66
2022/05/29 01:38:45;;;;;;;0.40;0.40;;;11.00;99.90;10.20;101658.00;;;;5073692;28;20229;-65
2022/05/29 01:41:28;;;;;;;0.40;0.40;;;10.90;99.90;10.20;101637.00;;;;5056065;28;20258;-65
2022/05/29 01:44:13;;;;;;;0.40;0.40;;;10.80;99.90;10.40;101653.00;;;;5072742;28;20223;-65
2022/05/29 01:46:39;;;;;;;0.40;0.40;;;10.70;99.90;10.40;101649.00;;;;5072873;28;20685;-65
2022/05/29 01:49:19;;;;;;;0.40;0.40;;;10.80;99.90;10.40;101653.00;;;;5072395;28;20216;-65
2022/05/29 01:52:20;;;;;;;0.40;0.40;;;10.80;99.90;11.10;101647.00;;;;5072671;28;20194;-65
2022/05/29 01:54:59;;;;;;;0.40;0.40;;;11.00;99.90;11.00;101648.00;;;;5071972;28;20174;-65
2022/05/29 01:57:31;;;;;;;0.40;0.40;;;11.30;99.90;11.20;101642.00;;;;5072521;28;20272;-65
2022/05/29 02:00:09;;;;;;;0.40;0.40;;;11.30;99.90;11.40;101642.00;;;;5072208;28;20183;-65
2022/05/29 02:03:09;;;;;;;0.40;0.40;;;11.50;99.90;11.60;101632.00;;;;5073807;28;20201;-65
2022/05/29 02:05:43;;;;;;;0.40;0.40;;;11.70;99.90;11.70;101633.00;;;;5065676;28;20292;-65
2022/05/29 02:08:18;;;;;;;0.40;0.40;;;11.80;99.90;11.70;101625.00;;;;5055754;28;20183;-65
2022/05/29 02:10:55;;;;;;;0.50;0.50;;;11.80;99.90;11.50;101622.00;;;;5072325;28;20518;-65
2022/05/29 02:13:34;;;;;;;0.40;0.40;;;11.70;99.90;11.70;101627.00;;;;5072072;28;20180;-65
2022/05/29 02:16:16;;;;;;;0.40;0.40;;;11.90;99.90;12.00;101626.00;;;;5073443;28;20173;-66
2022/05/29 02:18:57;;;;;;;0.40;0.40;;;12.00;99.90;12.00;101582.00;;;;5072189;28;20184;-66
2022/05/29 02:21:33;;;;;;;0.40;0.40;;;12.10;99.90;12.10;101612.00;;;;5072350;28;20177;-65
2022/05/29 02:24:05;;;;;;;0.40;0.40;;;12.20;99.90;12.20;101617.00;;;;5072328;28;20170;-65
2022/05/29 02:26:37;;;;;;;0.40;0.40;;;12.30;99.90;11.80;101616.00;;;;5073588;28;20170;-65
2022/05/29 02:29:11;;;;;;;0.40;0.40;;;12.10;99.90;11.70;101606.00;;;;5072216;28;20635;-65
2022/05/29 02:31:49;;;;;;;0.33;0.33;;;12.00;99.90;11.40;101608.00;;;;5073345;28;20223;-65
2022/05/29 02:34:37;;;;;;;0.40;0.40;;;12.00;99.90;11.60;101619.00;;;;5073160;28;20176;-65
2022/05/29 02:37:20;;;;;;;0.30;0.30;;;11.90;99.90;10.80;101573.00;;;;5073121;28;20182;-65
2022/05/29 02:39:53;;;;;;;0.30;0.30;;;11.60;99.90;10.30;101615.00;;;;5071968;28;20176;-65
2022/05/29 02:42:45;;;;;;;0.30;0.30;;;11.10;99.90;10.60;101607.00;;;;5072214;28;20173;-65
2022/05/29 02:46:00;;;;;;;0.40;0.40;;;11.20;99.90;10.70;101609.00;;;;5073068;28;20184;-65
2022/05/29 02:48:40;;;;;;;0.40;0.40;;;11.10;99.90;11.40;101575.00;;;;5073177;28;20174;-65
2022/05/29 02:51:27;;;;;;;0.30;0.30;;;11.30;99.90;10.90;101604.00;;;;5073011;28;20268;-66
2022/05/29 02:53:53;;;;;;;0.40;0.40;;;11.40;99.90;11.20;101606.00;;;;5071849;28;20597;-65
2022/05/29 02:56:20;;;;;;;0.40;0.40;;;11.50;99.90;11.30;101596.00;;;;5072711;28;20235;-65
2022/05/29 02:58:52;;;;;;;0.30;0.30;;;11.50;99.90;11.60;101557.00;;;;5073228;28;20178;-65
2022/05/29 03:01:43;;;;;;;0.40;0.40;;;11.70;99.90;11.40;101583.00;;;;5071925;28;20553;-65
2022/05/29 03:04:40;;;;;;;0.40;0.40;;;11.70;99.90;11.40;101587.00;;;;5071656;28;20180;-65
2022/05/29 03:07:26;;;;;;;0.40;0.40;;;11.60;99.90;11.50;101582.00;;;;5071399;28;20208;-65
2022/05/29 03:10:40;;;;;;;2.53;1.70;;;11.60;99.90;11.20;101558.00;;;;5072774;28;20264;-65
2022/05/29 03:13:38;;;;;;;0.40;0.40;;;11.70;99.90;11.20;101586.00;;;;5071483;28;20197;-65
2022/05/29 03:16:35;;;;;;;0.40;0.40;;;11.50;99.90;10.90;101586.00;;;;5071589;28;20178;-65
2022/05/29 03:19:12;;;;;;;0.40;0.40;;;11.40;99.90;10.60;101555.00;;;;5074993;28;20174;-65
2022/05/29 03:21:42;;;;;;;0.40;0.40;;;11.20;99.90;11.20;101599.00;;;;5076090;28;20265;-65
2022/05/29 03:24:33;;;;;;;0.40;0.40;;;11.30;99.90;11.50;101558.00;;;;5075199;28;20173;-65
2022/05/29 03:27:23;;;;;;;0.40;0.40;;;11.60;99.90;11.10;101583.00;;;;5075493;28;20248;-65
2022/05/29 03:30:03;;;;;;;0.40;0.40;;;11.60;99.90;10.80;101543.00;;;;5075365;28;20167;-65
2022/05/29 03:32:30;;;;;;;0.37;0.37;;;11.30;99.90;11.00;101586.00;;;;5074735;28;20672;-65
2022/05/29 03:34:56;;;;;;;0.40;0.40;;;11.20;99.90;11.50;101584.00;;;;5075140;28;20176;-65
2022/05/29 03:37:21;;;;;;;0.40;0.40;;;11.50;99.90;11.30;101576.00;;;;5076461;28;20185;-65
2022/05/29 03:39:47;;;;;;;0.40;0.40;;;11.50;99.90;11.50;101576.00;;;;5076192;28;20627;-65
2022/05/29 03:42:13;;;;;;;0.40;0.40;;;11.60;99.90;11.70;101558.00;;;;5075910;28;20607;-65
2022/05/29 03:44:40;;;;;;;0.50;0.50;;;11.70;99.90;11.50;101573.00;;;;5076127;28;20181;-65
2022/05/29 03:47:06;;;;;;;0.40;0.40;;;11.70;99.90;11.50;101561.00;;;;5074835;28;20268;-65
2022/05/29 03:49:32;;;;;;;0.40;0.40;;;11.60;99.90;11.30;101569.00;;;;5075806;28;20347;-65
2022/05/29 03:51:58;;;;;;;0.40;0.40;;;11.50;99.90;11.20;101558.00;;;;5075904;28;20725;-65
2022/05/29 03:54:24;;;;;;;0.40;0.40;;;11.40;99.90;11.40;101551.00;;;;5076108;28;20194;-65
2022/05/29 03:56:50;;;;;;;0.47;0.47;;;11.40;99.90;11.70;101561.00;;;;5075106;28;20256;-65
2022/05/29 03:59:16;;;;;;;0.40;0.40;;;11.60;99.90;11.50;101555.00;;;;5074844;28;20201;-65
2022/05/29 04:01:42;;;;;;;0.60;0.60;;;11.70;99.90;11.50;101516.00;;;;5075684;28;20193;-65
2022/05/29 04:04:08;;;;;;;0.50;0.50;;;11.60;99.90;11.70;101539.00;;;;5075464;28;20509;-65
2022/05/29 04:06:40;;;;;;;0.43;0.43;;;11.70;99.90;10.90;101533.00;;;;5076046;28;20158;-65
2022/05/29 04:12:04;;;;;;;0.50;0.50;;;11.40;99.90;10.50;101541.00;;;;5074596;28;20304;-65
2022/05/29 04:14:43;;;;;;;0.40;0.40;;;11.10;99.90;10.20;101504.00;;;;5074492;28;20178;-65
2022/05/29 04:17:15;;;;;;;0.40;0.40;;;10.80;99.90;10.30;101545.00;;;;5074362;28;20169;-65
2022/05/29 04:19:42;;;;;;;0.40;0.40;;;10.70;99.90;10.30;101518.00;;;;5075469;28;20166;-65
2022/05/29 04:22:18;;;;;;;0.30;0.30;;;10.60;99.90;10.20;101502.00;;;;5075421;28;20178;-65
2022/05/29 04:24:45;;;;;;;0.40;0.40;;;10.60;99.90;10.90;101537.00;;;;5075875;28;20675;-65
2022/05/29 04:27:15;;;;;;;0.40;0.40;;;10.90;99.90;11.30;101542.00;;;;5074180;28;20629;-65
2022/05/29 04:29:41;;;;;;;0.40;0.40;;;11.30;99.90;11.60;101509.00;;;;5075256;28;20181;-65
2022/05/29 04:34:55;;;;;;;2.10;1.27;;;11.70;99.90;11.90;101534.00;;;;5075190;28;20186;-65
2022/05/29 04:37:21;;;;;;;0.43;0.43;;;12.00;99.90;12.10;101528.00;;;;5075272;28;20162;-65
2022/05/29 04:39:47;;;;;;;0.30;0.30;;;12.20;99.90;11.80;101517.00;;;;5073929;28;20670;-65
2022/05/29 04:42:13;;;;;;;0.30;0.30;;;12.30;99.90;12.80;101506.00;;;;5073757;28;20173;-65
2022/05/29 04:44:38;;;;;;;0.20;0.20;;;12.80;99.90;12.70;101526.00;;;;5073672;28;20182;-65
2022/05/29 04:47:04;;;;;;;0.23;0.23;;;12.90;99.90;11.70;101506.00;;;;5074582;28;20222;-65
2022/05/29 04:49:31;;;;;;;0.30;0.30;;;12.50;99.90;11.10;101513.00;;;;5074945;28;20626;-65
2022/05/29 04:51:57;;;;;;;0.20;0.20;;;12.00;99.90;11.10;101519.00;;;;5074914;28;20669;-65
2022/05/29 04:54:24;;;;;;;0.20;0.20;;;11.80;99.90;11.70;101517.00;;;;5073782;28;20209;-65
2022/05/29 04:56:50;;;;;;;0.20;0.20;;;12.00;99.90;12.30;101528.00;;;;5074875;28;20175;-65
2022/05/29 04:59:16;;;;;;;0.20;0.20;;;12.30;99.90;11.60;101503.00;;;;5074439;28;20189;-65
2022/05/29 05:01:42;;;;;;;0.90;0.80;;;12.40;99.90;12.30;101525.00;;;;5074376;28;20193;-65
2022/05/29 05:04:08;;;;;;;0.23;0.23;;;12.80;99.90;12.30;101510.00;;;;5074466;28;20696;-65
2022/05/29 05:06:34;;;;;;;0.20;0.20;;;12.80;99.90;13.00;101520.00;;;;5073459;28;20310;-65
2022/05/29 05:09:01;;;;;;;0.20;0.20;;;13.30;99.90;14.50;101522.00;;;;5074325;28;20184;-65
2022/05/29 05:11:27;;;;;;;0.10;0.10;;;14.00;99.90;16.90;101555.00;;;;5073294;28;20207;-65
2022/05/29 05:13:52;;;;;;;0.10;0.10;;;15.90;99.90;18.90;101599.00;;;;5074526;28;20169;-66
2022/05/29 05:16:18;;;;;;;0.27;0.27;;;17.60;99.90;19.80;101635.00;;;;5073114;28;20175;-66
2022/05/29 05:18:44;;;;;;;0.20;0.20;;;18.70;99.90;21.10;101654.00;;;;5074432;28;20192;-66
2022/05/29 05:21:10;;;;;;;0.25;0.25;;;19.80;99.90;21.60;101676.00;;;;5072953;28;20169;-66
2022/05/29 05:23:36;;;;;;;0.60;0.60;;;20.60;99.90;18.70;101666.00;;;;5074075;28;20201;-65
2022/05/29 05:26:12;;;;;;;1.75;1.05;;;19.20;99.90;18.10;101667.00;;;;5074264;28;20243;-66
2022/05/29 05:28:38;;;;;;;0.30;0.30;;;18.40;99.90;18.60;101644.00;;;;5074195;28;20271;-65
2022/05/29 05:31:04;;;;;;;0.68;0.68;;;18.20;99.90;18.60;101661.00;;;;5073521;28;20652;-66
2022/05/29 05:33:30;;;;;;;0.10;0.10;;;18.60;99.90;20.50;101649.00;;;;5074338;28;20189;-66
2022/05/29 05:35:56;;;;;;;0.10;0.10;;;19.50;99.90;22.40;101691.00;;;;5074012;28;20654;-64
2022/05/29 05:38:22;;;;;;;0.10;0.10;;;20.90;99.90;23.70;101697.00;;;;5072646;28;20185;-64
2022/05/29 05:40:48;;;;;;;0.10;0.10;;;22.20;99.90;25.10;101706.00;;;;5073372;28;20169;-66
2022/05/29 05:43:14;;;;;;;0.10;0.10;;;23.50;99.90;25.00;101679.00;;;;5073073;28;20181;-66
2022/05/29 05:45:43;;;;;;;0.10;0.10;;;24.00;99.90;25.00;101677.00;;;;5072404;28;20536;-66
2022/05/29 05:48:09;;;;;;;0.10;0.10;;;24.40;99.90;24.00;101688.00;;;;5073998;28;20268;-66
2022/05/29 05:50:37;;;;;;;0.13;0.13;;;23.70;99.90;25.40;101680.00;;;;5055950;28;20217;-66
2022/05/29 05:53:03;;;;;;;0.10;0.10;;;24.20;99.90;26.50;101636.00;;;;5073696;28;20663;-66
2022/05/29 05:55:29;;;;;;;0.13;0.13;;;25.00;99.90;27.00;101645.00;;;;5073441;28;20287;-66
2022/05/29 05:57:55;;;;;;;0.10;0.10;;;25.70;99.50;27.30;101645.00;;;;5073655;28;20640;-64
2022/05/29 06:00:22;;;;;;;0.10;0.10;;;26.20;97.90;27.30;101633.00;;;;5073373;28;20176;-64
2022/05/29 06:02:47;;;;;;;0.10;0.10;;;26.60;96.50;28.80;101626.00;;;;5072290;28;20205;-64
2022/05/29 06:05:15;;;;;;;0.10;0.10;;;27.30;95.60;27.80;101630.00;;;;5072346;28;20256;-64
2022/05/29 06:07:41;;;;;;;0.10;0.10;;;27.60;93.20;26.30;101649.00;;;;5073461;28;20174;-64
2022/05/29 06:10:09;;;;;;;0.10;0.10;;;26.40;92.80;23.80;101658.00;;;;5072045;28;20637;-66
2022/05/29 06:12:36;;;;;;;0.10;0.10;;;24.70;93.40;21.90;101676.00;;;;5072324;28;20234;-66
2022/05/29 06:15:04;;;;;;;0.10;0.10;;;22.50;95.30;20.40;101679.00;;;;5072167;28;20322;-65
2022/05/29 06:17:31;;;;;;;0.10;0.10;;;20.90;97.80;18.90;101701.00;;;;5055579;28;20271;-65
2022/05/29 06:19:57;;;;;;;0.20;0.20;;;19.40;99.90;17.50;101687.00;;;;5073473;28;20169;-65
2022/05/29 06:22:22;;;;;;;0.20;0.20;;;18.20;99.90;16.50;101687.00;;;;5073225;28;20245;-65
2022/05/29 06:24:48;;;;;;;0.30;0.30;;;16.90;99.90;15.20;101657.00;;;;5073134;28;20181;-65
2022/05/29 06:27:14;;;;;;;0.20;0.20;;;16.00;99.90;15.50;101640.00;;;;5073380;28;20176;-65
2022/05/29 06:29:40;;;;;;;0.67;0.67;;;15.50;99.90;14.80;101615.00;;;;5073307;28;20641;-65
2022/05/29 06:32:08;;;;;;;0.50;0.50;;;15.00;99.90;14.60;101602.00;;;;5073401;28;20190;-64
2022/05/29 06:34:35;;;;;;;0.27;0.27;;;14.80;99.90;15.40;101590.00;;;;5071813;28;20193;-65
2022/05/29 06:37:06;;;;;;;3.73;0.87;;;15.30;99.90;17.30;101656.00;;;;5055265;28;20183;-65
2022/05/29 06:39:36;;;;;;;0.27;0.27;;;16.70;99.90;17.10;101671.00;;;;5072060;28;20192;-65
2022/05/29 06:42:02;;;;;;;0.40;0.40;;;17.30;99.90;15.00;101627.00;;;;5073007;28;20213;-65
2022/05/29 06:44:28;;;;;;;0.97;0.40;;;16.30;99.90;14.00;101544.00;;;;5072870;28;20534;-64
2022/05/29 06:46:53;;;;;;;0.20;0.20;;;15.10;99.90;14.30;101581.00;;;;5073256;28;20179;-65
2022/05/29 06:49:19;;;;;;;0.27;0.27;;;14.90;99.90;13.70;101519.00;;;;5073071;28;20660;-64
2022/05/29 06:51:45;;;;;;;0.10;0.10;;;14.40;99.90;14.20;101550.00;;;;5054767;28;20566;-65
2022/05/29 06:54:11;;;;;;;0.20;0.20;;;14.40;99.90;14.10;101566.00;;;;5075817;28;20585;-64
2022/05/29 06:56:37;;;;;;;0.37;0.37;;;14.80;99.90;13.90;101548.00;;;;5076920;28;20178;-65
2022/05/29 06:59:06;;;;;;;0.17;0.17;;;14.80;99.90;14.20;101560.00;;;;5076931;28;20178;-64
2022/05/29 07:07:15;;;;;;;0.33;0.33;;;15.20;99.90;14.20;101576.00;;;;5075686;28;20258;-65
2022/05/29 07:09:41;;;;;;;0.10;0.10;;;14.60;99.90;13.90;101571.00;;;;5076754;28;20175;-65
2022/05/29 07:12:39;;;;;;;0.20;0.20;;;14.40;99.90;14.20;101577.00;;;;5075148;28;20190;-65
2022/05/29 07:15:07;;;;;;;0.20;0.20;;;14.50;99.90;14.30;101583.00;;;;5053646;28;20653;-65
2022/05/29 07:17:33;;;;;;;0.10;0.10;;;14.60;99.90;13.50;101567.00;;;;5058805;28;20300;-65
2022/05/29 07:19:59;;;;;;;0.20;0.20;;;14.30;99.90;13.10;101529.00;;;;5076580;28;20653;-65
2022/05/29 07:22:32;;;;;;;0.23;0.23;;;13.90;99.90;13.30;101548.00;;;;5075230;28;20223;-65
2022/05/29 07:24:58;;;;;;;0.20;0.20;;;13.90;99.90;12.60;101541.00;;;;5075511;28;20173;-66
2022/05/29 07:27:24;;;;;;;0.20;0.20;;;13.60;99.90;13.10;101538.00;;;;5076146;28;20317;-65
2022/05/29 07:29:53;;;;;;;0.50;0.50;;;13.50;99.90;13.70;101550.00;;;;5075592;28;20188;-65
2022/05/29 07:32:21;;;;;;;0.20;0.20;;;13.80;99.90;13.50;101551.00;;;;5076342;28;20546;-65
2022/05/29 07:34:47;;;;;;;0.20;0.20;;;13.90;99.90;14.30;101547.00;;;;5076450;28;20182;-65
2022/05/29 07:37:16;;;;;;;0.20;0.20;;;14.20;99.90;14.00;101550.00;;;;5076172;28;20183;-64
2022/05/29 07:39:49;;;;;;;0.47;0.47;;;14.30;99.90;13.90;101530.00;;;;5076297;28;20162;-64
2022/05/29 07:45:00;;;;;;;0.10;0.10;;;15.00;99.90;17.00;101575.00;;;;5076178;28;20181;-64
2022/05/29 07:47:27;;;;;;;0.10;0.10;;;16.40;99.90;17.10;101607.00;;;;5075146;28;20253;-64
2022/05/29 07:49:57;;;;;;;0.20;0.20;;;17.30;99.90;17.80;101674.00;;;;5074864;28;20236;-64
2022/05/29 07:52:24;;;;;;;0.10;0.10;;;17.80;99.90;18.70;101649.00;;;;5074910;28;20735;-65
2022/05/29 07:54:49;;;;;;;0.10;0.10;;;18.30;99.90;19.60;101678.00;;;;5076162;28;20181;-65
2022/05/29 07:57:15;;;;;;;0.10;0.10;;;19.30;99.90;21.10;101663.00;;;;5076049;28;20185;-65
2022/05/29 07:59:41;;;;;;;0.20;0.20;;;20.50;99.90;21.10;101642.00;;;;5075853;28;20231;-65
2022/05/29 08:02:07;;;;;;;0.10;0.10;;;21.10;99.90;22.10;101674.00;;;;5075661;28;20190;-65
2022/05/29 08:04:33;;;;;;;0.10;0.10;;;21.60;99.90;21.10;101677.00;;;;5075258;28;20177;-65
2022/05/29 08:07:02;;;;;;;0.10;0.10;;;21.80;99.90;22.40;101675.00;;;;5074729;28;20589;-65
2022/05/29 08:09:28;;;;;;;0.10;0.10;;;22.20;99.90;22.30;101676.00;;;;5057515;28;20188;-65
2022/05/29 08:11:54;;;;;;;0.10;0.10;;;22.40;99.90;20.20;101671.00;;;;5075667;28;20592;-65
2022/05/29 08:14:20;;;;;;;0.10;0.10;;;20.90;99.90;19.20;101700.00;;;;5076143;28;20211;-65
2022/05/29 08:16:46;;;;;;;1.95;0.52;;;19.90;99.90;17.90;101686.00;;;;5074178;28;20181;-65
2022/05/29 08:19:13;;;;;;;0.10;0.10;;;18.90;99.90;17.40;101687.00;;;;5057667;28;20219;-64
2022/05/29 08:21:40;;;;;;;0.20;0.20;;;17.90;99.90;17.40;101638.00;;;;5075483;28;20209;-65
2022/05/29 08:32:18;;;;;;;0.10;0.10;;;16.70;99.90;16.80;101647.00;;;;5075042;28;20206;-64
2022/05/29 08:34:44;;;;;;;0.10;0.10;;;16.60;99.90;17.60;101667.00;;;;5074416;28;20639;-65
2022/05/29 08:37:11;;;;;;;0.10;0.10;;;17.20;99.90;16.40;101659.00;;;;5074071;28;20174;-65
2022/05/29 08:39:37;;;;;;;0.10;0.10;;;17.00;99.90;17.30;101624.00;;;;5073657;28;20200;-65
2022/05/29 08:42:03;;;;;;;0.83;0.20;;;17.00;99.90;18.30;101632.00;;;;5074628;28;20212;-65
2022/05/29 08:44:48;;;;;;;0.67;0.67;;;17.80;99.90;18.80;101675.00;;;;5074123;28;20188;-65
2022/05/29 08:47:26;;;;;;;0.10;0.10;;;18.40;99.90;18.60;101658.00;;;;5073911;28;20632;-65
2022/05/29 08:49:52;;;;;;;0.28;0.28;;;19.00;99.90;17.80;101667.00;;;;5057159;28;20551;-65
2022/05/29 08:53:05;;;;;;;0.10;0.10;;;18.50;99.90;18.70;101666.00;;;;5073598;28;20174;-65
2022/05/29 08:55:48;;;;;;;0.10;0.10;;;18.80;99.90;17.80;101664.00;;;;5073739;28;20174;-65
2022/05/29 08:58:55;;;;;;;0.10;0.10;;;18.30;99.90;17.50;101642.00;;;;5073390;28;20190;-65
2022/05/29 09:02:01;;;;;;;0.10;0.10;;;17.80;99.90;17.50;101647.00;;;;5074615;28;20186;-65
2022/05/29 09:04:52;;;;;;;0.10;0.10;;;17.40;99.90;17.80;101646.00;;;;5074632;28;20231;-66
2022/05/29 09:07:19;;;;;;;0.10;0.10;;;17.40;99.90;16.70;101640.00;;;;5056455;28;20268;-66
2022/05/29 09:10:00;;;;;;;0.20;0.20;;;17.00;99.90;16.00;101621.00;;;;5072883;28;20179;-66
2022/05/29 09:12:38;;;;;;;0.37;0.37;;;16.40;99.90;16.00;101605.00;;;;5073334;28;20202;-64
2022/05/29 09:15:41;;;;;;;0.40;0.40;;;16.30;99.90;15.90;101579.00;;;;5073033;28;20172;-65
2022/05/29 09:18:17;;;;;;;0.30;0.30;;;16.10;99.90;15.30;101556.00;;;;5025174;28;20529;-65
2022/05/29 09:21:10;;;;;;;0.20;0.20;;;15.70;99.90;15.40;101547.00;;;;5074289;28;20219;-65
2022/05/29 09:23:54;;;;;;;0.50;0.50;;;15.40;99.90;15.00;101543.00;;;;5065545;28;20196;-65
2022/05/29 09:26:20;;;;;;;0.20;0.20;;;15.40;99.90;13.80;101506.00;;;;5074664;28;20633;-65
2022/05/29 09:28:46;;;;;;;0.40;0.40;;;14.60;99.90;13.50;101489.00;;;;5074039;28;20180;-65
2022/05/29 09:31:21;;;;;;;0.30;0.30;;;14.30;99.90;14.10;101451.00;;;;5074440;28;20210;-66
2022/05/29 09:33:47;;;;;;;0.30;0.30;;;14.30;99.90;14.40;101510.00;;;;5072698;28;20749;-66
2022/05/29 09:36:44;;;;;;;0.30;0.30;;;14.60;99.90;14.50;101490.00;;;;5072485;28;20181;-65
2022/05/29 09:39:28;;;;;;;0.20;0.20;;;14.70;99.90;13.70;101485.00;;;;5072770;28;20181;-65
2022/05/29 09:42:37;;;;;;;0.20;0.20;;;14.70;99.90;14.60;101490.00;;;;5073647;28;20193;-65
2022/05/29 09:45:15;;;;;;;0.20;0.20;;;15.20;99.90;16.00;101497.00;;;;5050676;28;20219;-65
2022/05/29 09:50:49;;;;;;;0.30;0.30;;;16.30;99.90;15.10;101497.00;;;;5072626;28;20223;-65
2022/05/29 09:53:25;;;;;;;0.20;0.20;;;16.20;99.90;15.60;101493.00;;;;5072725;28;20188;-66
2022/05/29 09:55:58;;;;;;;0.60;0.50;;;16.00;99.90;12.50;101431.00;;;;5072405;28;20174;-65
2022/05/29 09:58:50;;;;;;;1.60;0.77;;;14.50;99.90;12.30;101485.00;;;;5072451;28;20182;-65
2022/05/29 10:01:49;;;;;;;0.40;0.40;;;13.50;99.90;11.70;101482.00;;;;5072409;28;20181;-65
2022/05/29 10:04:44;;;;;;;0.40;0.40;;;12.80;99.90;12.70;101463.00;;;;5061464;28;20281;-65
2022/05/29 10:07:27;;;;;;;0.40;0.40;;;13.00;99.90;13.10;101494.00;;;;5059356;28;20282;-65
2022/05/29 10:10:28;;;;;;;0.50;0.50;;;13.20;99.90;13.10;101464.00;;;;5072344;28;20187;-65
2022/05/29 10:12:58;;;;;;;0.40;0.40;;;13.40;99.90;12.90;101509.00;;;;5072200;28;20531;-65
2022/05/29 10:15:26;;;;;;;0.47;0.47;;;13.20;99.90;13.20;101498.00;;;;5072134;28;20664;-65
2022/05/29 10:17:58;;;;;;;0.40;0.40;;;13.40;99.90;13.40;101469.00;;;;5072047;28;20335;-64
2022/05/29 10:33:22;;;;;;;0.20;0.20;;;13.50;99.90;13.40;101481.00;;;;5070714;28;20547;-66
2022/05/29 10:35:50;;;;;;;0.30;0.30;;;13.80;99.90;13.80;101478.00;;;;5066002;28;20175;-65
2022/05/29 10:38:19;;;;;;;10.47;0.80;;;14.30;99.90;12.80;101453.00;;;;5066079;28;20631;-65
2022/05/29 10:40:49;;;;;;;2.10;0.77;;;13.90;99.90;12.90;101478.00;;;;5050251;28;20225;-66
2022/05/29 10:43:42;;;;;;;0.30;0.30;;;13.80;99.90;13.90;101487.00;;;;5049620;28;20171;-66
2022/05/29 10:46:39;;;;;;;0.30;0.30;;;14.00;99.90;13.40;101472.00;;;;5050617;28;20173;-66
2022/05/29 10:49:19;;;;;;;0.50;0.50;;;13.90;99.90;13.70;101487.00;;;;5050338;28;20185;-65
2022/05/29 10:52:16;;;;;;;0.37;0.37;;;14.10;99.90;13.20;101473.00;;;;5049112;28;20208;-65
2022/05/29 10:55:24;;;;;;;0.37;0.37;;;13.80;99.90;13.00;101479.00;;;;5050084;28;20289;-65
2022/05/29 10:58:18;;;;;;;0.30;0.30;;;13.70;99.90;13.40;101479.00;;;;5050125;28;20177;-65
2022/05/29 11:01:03;;;;;;;0.30;0.30;;;13.70;99.90;13.30;101480.00;;;;5050104;28;20181;-65
2022/05/29 11:03:50;;;;;;;0.50;0.50;;;13.80;99.90;13.80;101449.00;;;;5065559;28;20167;-66
2022/05/29 11:07:07;;;;;;;0.30;0.30;;;14.00;99.90;14.00;101464.00;;;;5065310;28;20634;-65
2022/05/29 11:09:45;;;;;;;0.30;0.30;;;14.20;99.90;14.70;101450.00;;;;5048102;28;20225;-65
2022/05/29 11:12:32;;;;;;;3.93;2.10;;;14.70;99.90;14.30;101448.00;;;;5048039;28;20296;-66
2022/05/29 11:15:46;;;;;;;0.30;0.30;;;14.80;99.90;14.40;101442.00;;;;5050177;28;20223;-65
2022/05/29 11:18:59;;;;;;;0.40;0.40;;;14.80;99.90;14.60;101432.00;;;;5030730;28;20854;-66
2022/05/29 11:22:14;;;;;;;0.40;0.40;;;14.80;99.90;13.40;101432.00;;;;5065323;28;20174;-65
2022/05/29 11:25:14;;;;;;;0.30;0.30;;;14.40;99.90;14.20;101431.00;;;;5049767;28;20183;-66
2022/05/29 11:27:46;;;;;;;0.30;0.30;;;14.40;99.90;14.10;101422.00;;;;5049721;28;20174;-65
2022/05/29 11:30:32;;;;;;;1.43;1.07;;;14.40;99.90;14.20;101425.00;;;;5049691;28;20178;-65
2022/05/29 11:33:42;;;;;;;0.40;0.40;;;14.50;99.90;14.80;101421.00;;;;5048976;28;20216;-66
2022/05/29 11:36:35;;;;;;;0.30;0.30;;;14.80;99.90;15.90;101423.00;;;;5049404;28;20183;-66
2022/05/29 11:39:31;;;;;;;0.40;0.40;;;15.70;99.90;16.50;101444.00;;;;5049469;28;20192;-65
2022/05/29 11:43:02;;;;;;;0.30;0.30;;;16.30;99.90;15.50;101424.00;;;;5064702;28;20195;-65
2022/05/29 11:51:34;;;;;;;0.20;0.20;;;16.00;99.90;15.80;101450.00;;;;5048598;28;20295;-65
2022/05/29 11:54:17;;;;;;;0.20;0.20;;;16.10;99.90;15.70;101447.00;;;;5051400;28;20632;-65
2022/05/29 11:56:49;;;;;;;0.20;0.20;;;16.00;99.90;16.10;101453.00;;;;5051450;28;20176;-65
2022/05/29 11:59:54;;;;;;;0.20;0.20;;;16.10;99.90;15.20;101416.00;;;;5051250;28;20602;-65
2022/05/29 12:02:33;;;;;;;0.20;0.20;;;16.00;99.90;13.70;101399.00;;;;5035419;28;20198;-65
2022/05/29 12:05:32;;;;;;;2.73;0.80;;;15.00;99.90;13.40;101391.00;;;;5051206;28;20264;-65
2022/05/29 12:08:16;;;;;;;0.83;0.83;;;14.40;99.90;14.10;101392.00;;;;5051033;28;20671;-65